createdAt,value
2022-08-08T00:01:00.277Z,10.79
2022-08-08T00:03:35.881Z,10.76
2022-08-08T00:06:05.233Z,10.72
2022-08-08T00:08:34.927Z,10.67
2022-08-08T00:11:08.010Z,10.63
2022-08-08T00:14:15.933Z,10.58
2022-08-08T00:16:32.152Z,10.52
2022-08-08T00:19:01.447Z,10.51
2022-08-08T00:21:30.811Z,10.54
2022-08-08T00:24:09.337Z,10.59
2022-08-08T00:26:40.157Z,10.62
2022-08-08T00:29:10.781Z,10.64
2022-08-08T00:32:28.574Z,10.67
2022-08-08T00:34:47.355Z,10.67
2022-08-08T00:37:47.898Z,10.67
2022-08-08T00:41:06.529Z,10.61
2022-08-08T00:42:56.466Z,10.56
2022-08-08T00:45:35.675Z,10.54
2022-08-08T00:48:06.565Z,10.52
2022-08-08T00:50:55.426Z,10.51
2022-08-08T00:53:25.156Z,10.51
2022-08-08T00:55:59.616Z,10.52
2022-08-08T00:58:35.010Z,10.50
2022-08-08T01:01:06.016Z,10.44
2022-08-08T01:03:59.003Z,10.40
2022-08-08T01:06:27.444Z,10.38
2022-08-08T01:08:59.456Z,10.35
2022-08-08T01:11:30.022Z,10.34
2022-08-08T01:14:06.464Z,10.34
2022-08-08T01:16:38.792Z,10.33
2022-08-08T01:19:13.875Z,10.33
2022-08-08T01:22:07.195Z,10.33
2022-08-08T01:24:50.736Z,10.29
2022-08-08T01:27:24.317Z,10.27
2022-08-08T01:30:03.681Z,10.28
2022-08-08T01:32:42.253Z,10.27
2022-08-08T01:35:13.964Z,10.22
2022-08-08T01:37:57.848Z,10.18
2022-08-08T01:40:43.656Z,10.14
2022-08-08T01:43:15.670Z,10.09
2022-08-08T01:45:45.460Z,10.02
2022-08-08T01:48:31.310Z,9.99
2022-08-08T01:51:03.448Z,9.98
2022-08-08T01:55:15.083Z,9.96
2022-08-08T01:56:37.108Z,9.94
2022-08-08T01:59:08.602Z,9.91
2022-08-08T02:01:59.718Z,9.92
2022-08-08T02:04:33.668Z,9.89
2022-08-08T02:07:04.308Z,9.86
2022-08-08T02:10:01.374Z,9.82
2022-08-08T02:12:29.514Z,9.80
2022-08-08T02:15:00.911Z,9.80
2022-08-08T02:17:42.727Z,9.79
2022-08-08T02:21:02.171Z,9.79
2022-08-08T02:23:07.777Z,9.81
2022-08-08T02:25:48.554Z,9.82
2022-08-08T02:28:26.014Z,9.85
2022-08-08T02:31:43.180Z,9.83
2022-08-08T02:34:08.701Z,9.80
2022-08-08T02:36:41.994Z,9.77
2022-08-08T02:39:42.633Z,9.74
2022-08-08T02:42:07.997Z,9.66
2022-08-08T02:44:56.931Z,9.60
2022-08-08T02:47:28.001Z,9.58
2022-08-08T02:50:02.436Z,9.55
2022-08-08T02:52:35.259Z,9.53
2022-08-08T02:55:10.438Z,9.49
2022-08-08T02:57:51.319Z,9.47
2022-08-08T03:00:31.044Z,9.48
2022-08-08T03:03:03.673Z,9.48
2022-08-08T03:05:44.981Z,9.44
2022-08-08T03:08:14.996Z,9.39
2022-08-08T03:10:53.293Z,9.35
2022-08-08T03:13:33.929Z,9.31
2022-08-08T03:16:34.453Z,9.31
2022-08-08T03:19:04.543Z,9.30
2022-08-08T03:21:54.512Z,9.27
2022-08-08T03:24:25.160Z,9.26
2022-08-08T03:26:55.765Z,9.25
2022-08-08T03:29:26.940Z,9.27
2022-08-08T03:32:32.337Z,9.31
2022-08-08T03:35:04.651Z,9.28
2022-08-08T03:38:53.934Z,9.25
2022-08-08T03:40:31.948Z,9.24
2022-08-08T03:43:16.443Z,9.24
2022-08-08T03:46:05.232Z,9.25
2022-08-08T03:49:30.954Z,9.27
2022-08-08T03:51:51.085Z,9.26
2022-08-08T03:54:41.727Z,9.28
2022-08-08T03:58:32.955Z,9.29
2022-08-08T04:00:07.829Z,9.32
2022-08-08T04:02:47.320Z,9.37
2022-08-08T04:05:19.615Z,9.43
2022-08-08T04:07:56.845Z,9.44
2022-08-08T04:10:32.329Z,9.44
2022-08-08T04:13:17.440Z,9.45
2022-08-08T04:15:54.818Z,9.47
2022-08-08T04:18:45.035Z,9.47
2022-08-08T04:21:23.390Z,9.57
2022-08-08T04:24:11.990Z,9.62
2022-08-08T04:26:57.524Z,9.72
2022-08-08T04:29:33.233Z,9.80
2022-08-08T04:32:10.679Z,9.90
2022-08-08T04:34:49.590Z,9.98
2022-08-08T04:37:32.187Z,10.10
2022-08-08T04:40:08.182Z,10.21
2022-08-08T04:42:57.117Z,10.33
2022-08-08T04:45:37.691Z,10.46
2022-08-08T04:48:08.238Z,10.58
2022-08-08T04:50:40.096Z,10.69
2022-08-08T04:54:37.201Z,10.83
2022-08-08T04:56:12.876Z,10.97
2022-08-08T04:58:42.891Z,11.08
2022-08-08T05:01:16.038Z,11.19
2022-08-08T05:04:09.291Z,11.31
2022-08-08T05:06:40.660Z,11.48
2022-08-08T05:09:12.291Z,11.60
2022-08-08T05:11:44.584Z,11.74
2022-08-08T05:14:29.095Z,11.89
2022-08-08T05:17:02.105Z,12.05
2022-08-08T05:20:09.841Z,12.21
2022-08-08T05:22:33.622Z,12.42
2022-08-08T05:25:03.933Z,12.59
2022-08-08T05:27:40.989Z,12.75
2022-08-08T05:30:12.438Z,12.92
2022-08-08T05:32:51.315Z,13.11
2022-08-08T05:35:23.453Z,13.27
2022-08-08T05:37:58.746Z,13.45
2022-08-08T05:40:35.769Z,13.65
2022-08-08T05:43:38.474Z,13.84
2022-08-08T05:46:09.718Z,14.08
2022-08-08T05:48:43.071Z,14.27
2022-08-08T05:51:16.202Z,14.47
2022-08-08T05:53:56.165Z,14.66
2022-08-08T05:56:42.003Z,14.84
2022-08-08T05:59:58.683Z,15.01
2022-08-08T06:02:31.014Z,15.19
2022-08-08T06:05:00.358Z,15.37
2022-08-08T06:07:29.897Z,15.52
2022-08-08T06:10:02.476Z,15.68
2022-08-08T06:12:36.964Z,15.85
2022-08-08T06:15:07.130Z,15.99
2022-08-08T06:17:51.168Z,16.13
2022-08-08T06:20:28.428Z,16.28
2022-08-08T06:22:59.509Z,16.42
2022-08-08T06:26:38.350Z,16.56
2022-08-08T06:28:29.204Z,16.72
2022-08-08T06:30:59.527Z,16.86
2022-08-08T06:33:36.584Z,17.00
2022-08-08T06:36:09.977Z,17.14
2022-08-08T06:38:40.596Z,17.28
2022-08-08T06:41:15.195Z,17.41
2022-08-08T06:43:57.509Z,17.56
2022-08-08T06:46:32.457Z,17.72
2022-08-08T06:49:02.877Z,17.87
2022-08-08T06:51:46.911Z,18.00
2022-08-08T06:54:21.244Z,18.15
2022-08-08T06:56:53.552Z,18.27
2022-08-08T06:59:24.015Z,18.39
2022-08-08T07:02:27.656Z,18.54
2022-08-08T07:04:51.973Z,18.71
2022-08-08T07:07:24.794Z,18.84
2022-08-08T07:09:59.766Z,18.95
2022-08-08T07:12:33.546Z,19.09
2022-08-08T07:15:05.008Z,19.21
2022-08-08T07:18:00.717Z,19.32
2022-08-08T07:20:26.582Z,19.48
2022-08-08T07:22:58.332Z,19.61
2022-08-08T07:25:31.807Z,19.74
2022-08-08T07:28:08.013Z,19.83
2022-08-08T07:30:38.654Z,19.88
2022-08-08T07:33:17.584Z,20.01
2022-08-08T07:35:48.714Z,20.12
2022-08-08T07:38:25.372Z,20.26
2022-08-08T07:41:04.262Z,20.38
2022-08-08T07:43:37.666Z,20.48
2022-08-08T07:46:18.013Z,20.52
2022-08-08T07:48:55.679Z,20.63
2022-08-08T07:51:45.239Z,20.75
2022-08-08T07:54:15.819Z,20.91
2022-08-08T07:57:00.084Z,20.97
2022-08-08T07:59:37.546Z,21.03
2022-08-08T08:02:32.780Z,21.16
2022-08-08T08:04:58.627Z,21.31
2022-08-08T08:07:37.636Z,21.39
2022-08-08T08:10:08.525Z,21.53
2022-08-08T08:12:43.611Z,21.66
2022-08-08T08:15:15.992Z,21.75
2022-08-08T08:17:48.523Z,21.80
2022-08-08T08:20:22.080Z,21.86
2022-08-08T08:23:02.631Z,22.01
2022-08-08T08:25:43.098Z,22.10
2022-08-08T08:28:23.640Z,22.17
2022-08-08T08:30:54.985Z,22.31
2022-08-08T08:33:26.774Z,22.38
2022-08-08T08:36:19.041Z,22.51
2022-08-08T08:38:49.454Z,22.58
2022-08-08T08:41:24.990Z,22.62
2022-08-08T08:44:14.352Z,22.78
2022-08-08T08:46:50.785Z,22.91
2022-08-08T08:49:22.161Z,22.80
2022-08-08T08:51:55.712Z,22.75
2022-08-08T08:54:25.612Z,22.76
2022-08-08T08:56:56.575Z,22.82
2022-08-08T08:59:57.619Z,22.91
2022-08-08T09:02:16.502Z,23.07
2022-08-08T09:04:50.017Z,23.30
2022-08-08T09:07:21.417Z,23.58
2022-08-08T09:09:57.192Z,23.86
2022-08-08T09:12:32.806Z,24.11
2022-08-08T09:15:02.210Z,24.13
2022-08-08T09:17:42.007Z,24.25
2022-08-08T09:22:01.318Z,24.49
2022-08-08T09:23:17.396Z,24.78
2022-08-08T09:26:02.054Z,24.87
2022-08-08T09:28:38.480Z,25.02
2022-08-08T09:31:21.228Z,25.32
2022-08-08T09:34:31.095Z,25.43
2022-08-08T09:36:51.719Z,25.37
2022-08-08T09:39:33.297Z,25.40
2022-08-08T09:42:19.863Z,25.57
2022-08-08T09:44:51.924Z,25.71
2022-08-08T09:48:02.643Z,25.85
2022-08-08T09:50:13.967Z,25.99
2022-08-08T09:52:57.695Z,26.02
2022-08-08T09:55:51.611Z,26.10
2022-08-08T09:58:25.782Z,26.04
2022-08-08T10:00:59.008Z,25.85
2022-08-08T10:03:31.812Z,25.61
2022-08-08T10:06:01.797Z,25.48
2022-08-08T10:08:31.228Z,25.47
2022-08-08T10:11:00.878Z,25.51
2022-08-08T10:13:35.724Z,25.53
2022-08-08T10:16:06.206Z,25.51
2022-08-08T10:18:39.855Z,25.18
2022-08-08T10:21:25.496Z,25.10
2022-08-08T10:23:59.578Z,25.16
2022-08-08T10:26:52.044Z,25.23
2022-08-08T10:29:22.885Z,25.29
2022-08-08T10:32:10.038Z,25.20
2022-08-08T10:34:44.098Z,25.05
2022-08-08T10:37:16.489Z,24.96
2022-08-08T10:39:53.782Z,24.82
2022-08-08T10:42:27.190Z,24.74
2022-08-08T10:44:57.033Z,24.64
2022-08-08T10:47:26.332Z,24.58
2022-08-08T10:50:15.696Z,24.59
2022-08-08T10:52:45.792Z,24.61
2022-08-08T10:55:41.157Z,24.69
2022-08-08T10:58:05.971Z,24.85
2022-08-08T11:00:48.597Z,25.09
2022-08-08T11:03:36.822Z,25.19
2022-08-08T11:06:13.962Z,25.16
2022-08-08T11:08:53.173Z,25.29
2022-08-08T11:11:32.289Z,25.43
2022-08-08T11:14:15.855Z,25.59
2022-08-08T11:16:47.247Z,25.68
2022-08-08T11:19:17.969Z,25.74
2022-08-08T11:21:56.138Z,25.80
2022-08-08T11:24:25.873Z,25.88
2022-08-08T11:26:56.510Z,25.93
2022-08-08T11:29:41.299Z,25.95
2022-08-08T11:32:16.771Z,26.08
2022-08-08T11:35:08.812Z,26.24
2022-08-08T11:38:36.666Z,26.47
2022-08-08T11:40:26.484Z,26.64
2022-08-08T11:42:56.863Z,26.75
2022-08-08T11:45:26.246Z,26.84
2022-08-08T11:48:05.178Z,26.97
2022-08-08T11:50:35.414Z,26.98
2022-08-08T11:53:05.881Z,26.86
2022-08-08T11:55:36.835Z,26.67
2022-08-08T11:58:15.369Z,26.74
2022-08-08T12:00:45.272Z,26.79
2022-08-08T12:03:17.088Z,26.83
2022-08-08T12:05:50.699Z,26.85
2022-08-08T12:08:22.487Z,26.73
2022-08-08T12:10:55.488Z,26.51
2022-08-08T12:13:33.471Z,26.27
2022-08-08T12:16:16.808Z,26.04
2022-08-08T12:18:46.511Z,26.09
2022-08-08T12:21:16.138Z,26.16
2022-08-08T12:23:59.386Z,26.22
2022-08-08T12:26:36.100Z,26.24
2022-08-08T12:29:06.188Z,26.18
2022-08-08T12:31:39.451Z,26.10
2022-08-08T12:34:23.962Z,26.11
2022-08-08T12:37:08.319Z,26.05
2022-08-08T12:40:00.846Z,26.05
2022-08-08T12:42:33.865Z,26.22
2022-08-08T12:45:20.090Z,26.42
2022-08-08T12:48:04.339Z,26.74
2022-08-08T12:50:39.466Z,26.98
2022-08-08T12:53:08.875Z,27.21
2022-08-08T12:56:06.229Z,27.51
2022-08-08T12:58:29.044Z,27.81
2022-08-08T13:01:00.075Z,27.93
2022-08-08T13:03:35.605Z,28.09
2022-08-08T13:06:10.439Z,28.15
2022-08-08T13:08:53.651Z,28.10
2022-08-08T13:11:28.769Z,27.87
2022-08-08T13:14:16.121Z,27.58
2022-08-08T13:16:49.439Z,27.28
2022-08-08T13:19:20.322Z,27.15
2022-08-08T13:21:58.289Z,26.97
2022-08-08T13:24:42.284Z,26.73
2022-08-08T13:27:14.945Z,26.58
2022-08-08T13:29:44.553Z,26.47
2022-08-08T13:32:15.969Z,26.33
2022-08-08T13:34:45.296Z,26.27
2022-08-08T13:37:51.671Z,26.17
2022-08-08T13:40:09.009Z,26.14
2022-08-08T13:42:38.332Z,26.18
2022-08-08T13:45:09.912Z,26.21
2022-08-08T13:47:41.221Z,26.26
2022-08-08T13:50:39.305Z,26.24
2022-08-08T13:53:22.693Z,26.23
2022-08-08T13:55:54.785Z,26.25
2022-08-08T13:58:25.003Z,26.27
2022-08-08T14:00:58.762Z,26.32
2022-08-08T14:03:53.110Z,26.41
2022-08-08T14:06:32.449Z,26.41
2022-08-08T14:09:25.381Z,26.45
2022-08-08T14:11:54.397Z,26.50
2022-08-08T14:14:26.340Z,26.60
2022-08-08T14:17:00.485Z,26.65
2022-08-08T14:19:57.888Z,26.70
2022-08-08T14:22:19.646Z,26.85
2022-08-08T14:24:49.717Z,26.86
2022-08-08T14:27:27.147Z,26.78
2022-08-08T14:29:58.710Z,26.78
2022-08-08T14:32:30.423Z,26.75
2022-08-08T14:35:00.051Z,26.96
2022-08-08T14:37:42.950Z,27.21
2022-08-08T14:40:24.065Z,27.41
2022-08-08T14:42:56.959Z,27.52
2022-08-08T14:46:01.268Z,27.40
2022-08-08T14:48:34.858Z,27.20
2022-08-08T14:51:07.934Z,27.13
2022-08-08T14:53:55.127Z,27.17
2022-08-08T14:56:26.230Z,27.11
2022-08-08T14:58:56.268Z,27.02
2022-08-08T15:01:27.966Z,26.98
2022-08-08T15:04:10.311Z,26.78
2022-08-08T15:06:42.650Z,26.57
2022-08-08T15:09:14.214Z,26.38
2022-08-08T15:11:52.892Z,26.07
2022-08-08T15:14:25.131Z,25.87
2022-08-08T15:16:57.087Z,25.68
2022-08-08T15:19:28.153Z,25.55
2022-08-08T15:21:58.445Z,25.40
2022-08-08T15:24:31.715Z,25.28
2022-08-08T15:27:20.098Z,25.22
2022-08-08T15:29:50.899Z,25.19
2022-08-08T15:32:27.375Z,25.17
2022-08-08T15:34:59.562Z,25.18
2022-08-08T15:37:30.586Z,25.21
2022-08-08T15:40:01.086Z,25.21
2022-08-08T15:42:33.038Z,25.18
2022-08-08T15:45:02.625Z,25.18
2022-08-08T15:47:32.734Z,25.19
2022-08-08T15:50:02.431Z,25.20
2022-08-08T15:52:33.286Z,25.21
2022-08-08T15:55:03.886Z,25.23
2022-08-08T15:57:35.344Z,25.29
2022-08-08T16:00:26.844Z,25.35
2022-08-08T16:02:55.655Z,25.37
2022-08-08T16:05:35.856Z,25.34
2022-08-08T16:08:17.865Z,25.35
2022-08-08T16:13:27.174Z,25.38
2022-08-08T16:13:46.474Z,25.34
2022-08-08T16:16:18.083Z,25.28
2022-08-08T16:18:57.199Z,25.24
2022-08-08T16:21:28.976Z,25.22
2022-08-08T16:23:58.801Z,25.19
2022-08-08T16:26:33.992Z,25.18
2022-08-08T16:29:07.744Z,25.17
2022-08-08T16:31:40.813Z,25.15
2022-08-08T16:34:10.241Z,25.14
2022-08-08T16:36:40.740Z,25.11
2022-08-08T16:39:28.119Z,25.07
2022-08-08T16:42:01.334Z,24.97
2022-08-08T16:44:34.023Z,24.89
2022-08-08T16:47:04.324Z,24.80
2022-08-08T16:49:38.370Z,24.74
2022-08-08T16:55:05.349Z,24.66
2022-08-08T16:55:42.539Z,24.56
2022-08-08T16:58:15.645Z,24.47
2022-08-08T17:00:36.849Z,24.39
2022-08-08T17:03:06.191Z,24.35
2022-08-08T17:05:44.562Z,24.30
2022-08-08T17:08:14.732Z,24.25
2022-08-08T17:10:53.578Z,24.20
2022-08-08T17:13:41.053Z,24.15
2022-08-08T17:16:22.292Z,24.12
2022-08-08T17:18:53.804Z,24.08
2022-08-08T17:21:23.097Z,24.02
2022-08-08T17:24:01.632Z,23.96
2022-08-08T17:26:32.463Z,23.92
2022-08-08T17:29:03.996Z,23.87
2022-08-08T17:31:45.722Z,23.82
2022-08-08T17:34:37.435Z,23.75
2022-08-08T17:37:06.497Z,23.67
2022-08-08T17:40:03.953Z,23.58
2022-08-08T17:42:28.686Z,23.48
2022-08-08T17:44:58.815Z,23.42
2022-08-08T17:47:40.422Z,23.34
2022-08-08T17:50:10.307Z,23.26
2022-08-08T17:52:43.298Z,23.19
2022-08-08T17:56:05.486Z,23.12
2022-08-08T17:58:02.404Z,23.04
2022-08-08T18:00:32.062Z,22.94
2022-08-08T18:03:08.990Z,22.84
2022-08-08T18:05:48.369Z,22.76
2022-08-08T18:08:38.033Z,22.66
2022-08-08T18:11:11.547Z,22.54
2022-08-08T18:13:44.395Z,22.47
2022-08-08T18:16:17.073Z,22.38
2022-08-08T18:18:56.579Z,22.29
2022-08-08T18:21:59.103Z,22.20
2022-08-08T18:24:19.380Z,22.09
2022-08-08T18:26:54.772Z,21.99
2022-08-08T18:29:29.485Z,21.88
2022-08-08T18:31:59.914Z,21.78
2022-08-08T18:34:33.300Z,21.69
2022-08-08T18:37:08.087Z,21.59
2022-08-08T18:39:41.329Z,21.51
2022-08-08T18:42:16.388Z,21.43
2022-08-08T18:44:54.798Z,21.34
2022-08-08T18:47:25.889Z,21.26
2022-08-08T18:49:58.924Z,21.17
2022-08-08T18:52:30.456Z,21.10
2022-08-08T18:55:10.791Z,21.01
2022-08-08T18:57:43.389Z,20.93
2022-08-08T19:00:16.817Z,20.86
2022-08-08T19:02:55.176Z,20.79
2022-08-08T19:05:32.088Z,20.70
2022-08-08T19:08:04.244Z,20.65
2022-08-08T19:10:33.811Z,20.61
2022-08-08T19:13:04.522Z,20.56
2022-08-08T19:15:40.190Z,20.47
2022-08-08T19:18:31.152Z,20.42
2022-08-08T19:20:59.433Z,20.36
2022-08-08T19:23:28.755Z,20.32
2022-08-08T19:26:29.568Z,20.25
2022-08-08T19:28:53.995Z,20.14
2022-08-08T19:31:23.188Z,20.08
2022-08-08T19:34:15.209Z,20.03
2022-08-08T19:36:52.287Z,19.96
2022-08-08T19:39:22.896Z,19.90
2022-08-08T19:41:52.921Z,19.82
2022-08-08T19:44:43.288Z,19.76
2022-08-08T19:47:12.368Z,19.71
2022-08-08T19:49:43.132Z,19.66
2022-08-08T19:52:13.761Z,19.66
2022-08-08T19:54:43.387Z,19.61
2022-08-08T19:57:14.362Z,19.58
2022-08-08T19:59:45.583Z,19.54
2022-08-08T20:02:15.438Z,19.50
2022-08-08T20:04:45.706Z,19.46
2022-08-08T20:08:28.397Z,19.39
2022-08-08T20:10:04.286Z,19.34
2022-08-08T20:12:35.501Z,19.30
2022-08-08T20:15:14.561Z,19.27
2022-08-08T20:17:46.248Z,19.22
2022-08-08T20:20:18.898Z,19.17
2022-08-08T20:22:52.599Z,19.12
2022-08-08T20:25:29.856Z,19.07
2022-08-08T20:28:05.730Z,19.04
2022-08-08T20:30:53.427Z,19.02
2022-08-08T20:35:58.881Z,18.99
2022-08-08T20:38:33.863Z,18.96
2022-08-08T20:41:05.778Z,18.95
2022-08-08T20:43:49.450Z,18.92
2022-08-08T20:46:25.297Z,18.89
2022-08-08T20:48:58.432Z,18.86
2022-08-08T20:51:32.422Z,18.82
2022-08-08T20:54:14.069Z,18.77
2022-08-08T20:57:04.292Z,18.72
2022-08-08T20:59:41.195Z,18.69
2022-08-08T21:02:12.451Z,18.66
2022-08-08T21:04:43.890Z,18.65
2022-08-08T21:07:47.411Z,18.63
2022-08-08T21:10:12.710Z,18.62
2022-08-08T21:12:46.275Z,18.60
2022-08-08T21:16:05.121Z,18.59
2022-08-08T21:18:12.103Z,18.57
2022-08-08T21:20:42.390Z,18.55
2022-08-08T21:23:13.157Z,18.53
2022-08-08T21:25:48.880Z,18.50
2022-08-08T21:28:33.625Z,18.46
2022-08-08T21:31:21.945Z,18.43
2022-08-08T21:33:52.859Z,18.40
2022-08-08T21:36:28.301Z,18.40
2022-08-08T21:38:58.587Z,18.40
2022-08-08T21:41:28.871Z,18.40
2022-08-08T21:44:12.108Z,18.38
2022-08-08T21:48:07.952Z,18.37
2022-08-08T21:49:32.300Z,18.35
2022-08-08T21:54:33.836Z,18.31
2022-08-08T21:55:01.903Z,18.27
2022-08-08T21:57:41.927Z,18.24
2022-08-08T22:00:14.449Z,18.24
2022-08-08T22:02:44.722Z,18.23
2022-08-08T22:05:15.346Z,18.21
2022-08-08T22:07:48.627Z,18.19
2022-08-08T22:10:31.967Z,18.17
2022-08-08T22:13:17.319Z,18.15
2022-08-08T22:15:59.319Z,18.13
2022-08-08T22:18:31.086Z,18.12
2022-08-08T22:21:01.698Z,18.09
2022-08-08T22:23:50.299Z,18.09
2022-08-08T22:26:29.390Z,18.06
2022-08-08T22:29:14.136Z,18.03
2022-08-08T22:32:02.407Z,17.99
2022-08-08T22:34:33.134Z,17.95
2022-08-08T22:37:14.633Z,17.90
2022-08-08T22:39:51.441Z,17.87
2022-08-08T22:42:34.682Z,17.83
2022-08-08T22:45:05.334Z,17.80
2022-08-08T22:47:47.045Z,17.75
2022-08-08T22:50:27.423Z,17.71
2022-08-08T22:54:19.496Z,17.66
2022-08-08T22:55:59.191Z,17.60
2022-08-08T22:58:33.056Z,17.52
2022-08-08T23:01:16.635Z,17.45
2022-08-08T23:03:56.279Z,17.39
2022-08-08T23:06:26.225Z,17.34
2022-08-08T23:08:58.690Z,17.29
2022-08-08T23:11:40.396Z,17.22
2022-08-08T23:14:19.335Z,17.16
2022-08-08T23:16:57.451Z,17.08
2022-08-08T23:19:32.346Z,17.00
2022-08-08T23:22:02.198Z,16.92
2022-08-08T23:24:36.851Z,16.84
2022-08-08T23:27:10.996Z,16.75
2022-08-08T23:29:55.032Z,16.70
2022-08-08T23:32:29.951Z,16.64
2022-08-08T23:34:59.614Z,16.58
2022-08-08T23:38:02.244Z,16.52
2022-08-08T23:40:22.090Z,16.45
2022-08-08T23:42:52.165Z,16.40
2022-08-08T23:49:04.025Z,16.36
2022-08-08T23:49:04.329Z,16.37
2022-08-08T23:51:01.472Z,16.36
2022-08-08T23:54:39.427Z,16.35
2022-08-08T23:56:32.493Z,16.32
2022-08-08T23:59:03.542Z,16.27
